Terminal Aerodrome Forecast
Issued by NWS

Home | Current Version | Previous Version | Text Only | Print | Product List | Glossary On
Versions: 1 2 3 4 5 6 7 8 9 10 11 12 13 14 15 16 17 18 19 20 21 22 23 24 25
000
FTUS41 KRLX 070255 AAA
TAFCKB
TAF AMD
KCKB 070255Z 0703/0724 19006KT P6SM -RA FEW011 FEW090 FEW110
     FM070600 20004KT 2SM BR FEW150
     FM070700 20004KT 1/2SM FG VV001
     FM071200 20004KT 4SM BR SCT002
     FM071230 21007KT P6SM SCT035
     FM072300 22008KT P6SM VCTS BKN045CB=

USA.gov is the U.S. government's official web portal to all federal, state and local government web resources and services.